Whitstable, United Kingdom
Current Conditions -  °F | °C
As of 8:50 PM on Saturday 20 Dec 2014 (Local Time) from EGMC Reporting Station
Clear Clear  
Wind Chill: 39°   Ceiling: Unl
Heat Index: 45°   Visibility: 6mi
Dew Point: 37°   Wind: 10mph
Humidity: 76%   Direction: 250°WSW
Pressure: 30.39"   Gusts: NA
Location:  51.36°N, 1.02°E
Report Text: EGMC 202050Z 25009KT CAVOK 07/03 Q1029
Loading
Personal Weather Stations






























Interactive Weather Map New forecast layout! Learn more

10-Day Weather Forecast

Advertisements
Track Severe Weather on mobile